Time;durP1;ratioP1;P1;durP2;ratioP2;P2;SDS_P1;SDS_P2;PMS_P1;PMS_P2;Temp;Humidity;BMP_temperature;BMP_pressure;BME280_temperature;BME280_humidity;BME280_pressure;Samples;Min_cycle;Max_cycle;Signal;HPM_P1;HPM_P2
2022/11/29 00:01:23;;;;;;;189.52;17.17;;;9.30;99.90;;;;;;5024623;28;20430;-75
2022/11/29 00:03:49;;;;;;;270.52;23.33;;;9.20;99.90;;;;;;5040717;28;20079;-77
2022/11/29 00:06:18;;;;;;;167.57;18.50;;;8.90;99.90;;;;;;5023710;28;20048;-79
2022/11/29 00:08:44;;;;;;;208.63;20.95;;;9.10;99.90;;;;;;5041994;28;20113;-78
2022/11/29 00:14:05;;;;;;;173.63;17.40;;;9.20;99.90;;;;;;5041763;28;20033;-75
2022/11/29 00:16:32;;;;;;;256.27;19.80;;;9.10;99.90;;;;;;5024886;28;20049;-78
2022/11/29 00:18:57;;;;;;;255.52;20.13;;;9.00;99.90;;;;;;5043034;28;20045;-75
2022/11/29 00:21:23;;;;;;;142.25;18.02;;;9.10;99.90;;;;;;5025380;28;20632;-76
2022/11/29 00:23:48;;;;;;;258.65;20.42;;;8.50;99.90;;;;;;5026400;28;20045;-76
2022/11/29 00:26:14;;;;;;;167.00;17.80;;;9.10;99.90;;;;;;4992626;28;20029;-79
2022/11/29 00:28:40;;;;;;;306.73;21.80;;;9.00;99.90;;;;;;5030163;28;20025;-76
2022/11/29 00:31:20;;;;;;;176.82;21.10;;;9.00;99.90;;;;;;5034585;28;20071;-76
2022/11/29 00:33:46;;;;;;;167.75;18.80;;;8.50;99.90;;;;;;5042245;28;20335;-79
2022/11/29 00:36:12;;;;;;;204.45;19.05;;;8.70;99.90;;;;;;5040175;28;20418;-78
2022/11/29 00:38:38;;;;;;;165.70;21.17;;;8.60;99.90;;;;;;5042017;28;20043;-77
2022/11/29 00:41:05;;;;;;;210.40;20.38;;;9.00;99.90;;;;;;5042061;28;20212;-78
2022/11/29 00:43:30;;;;;;;298.38;22.35;;;8.60;99.90;;;;;;5021909;28;20065;-77
2022/11/29 00:45:56;;;;;;;349.15;24.23;;;8.50;99.90;;;;;;5029064;28;20226;-75
2022/11/29 00:48:22;;;;;;;278.67;21.77;;;9.00;99.90;;;;;;5007929;28;20029;-78
2022/11/29 00:50:47;;;;;;;190.10;19.75;;;9.10;99.90;;;;;;5042705;28;20026;-77
2022/11/29 00:53:13;;;;;;;257.25;21.73;;;9.10;99.90;;;;;;5040860;28;20049;-78
2022/11/29 00:55:39;;;;;;;141.27;16.73;;;9.10;99.90;;;;;;5041437;28;20408;-79
2022/11/29 00:58:05;;;;;;;245.80;22.27;;;9.10;99.90;;;;;;5023541;28;20029;-75
2022/11/29 01:00:31;;;;;;;175.38;19.02;;;8.40;99.90;;;;;;5024585;28;20035;-77
2022/11/29 01:02:56;;;;;;;202.50;21.67;;;8.50;99.90;;;;;;5041645;28;20041;-76
2022/11/29 01:05:22;;;;;;;256.40;19.90;;;8.80;99.90;;;;;;5041536;28;20033;-78
2022/11/29 01:07:48;;;;;;;191.40;18.83;;;9.00;99.90;;;;;;5006720;28;20036;-76
2022/11/29 01:10:14;;;;;;;154.15;18.60;;;8.80;99.90;;;;;;5041226;28;20021;-78
2022/11/29 01:12:39;;;;;;;198.07;18.52;;;9.50;99.90;;;;;;5024993;28;20056;-76
2022/11/29 01:15:06;;;;;;;152.32;19.23;;;9.00;99.90;;;;;;5025881;28;20036;-78
2022/11/29 01:17:36;;;;;;;156.20;17.65;;;8.90;99.90;;;;;;5040666;28;20212;-78
2022/11/29 01:20:03;;;;;;;195.95;20.63;;;8.60;99.90;;;;;;5042485;28;20060;-77
2022/11/29 01:22:29;;;;;;;173.95;19.23;;;9.00;99.90;;;;;;5041124;28;20037;-78
2022/11/29 01:24:55;;;;;;;164.40;15.93;;;8.90;99.90;;;;;;5041000;28;20063;-79
2022/11/29 01:27:20;;;;;;;169.98;16.17;;;8.40;99.90;;;;;;5029908;28;20036;-77
2022/11/29 01:29:46;;;;;;;131.02;16.52;;;9.70;99.90;;;;;;5040201;28;20309;-78
2022/11/29 01:32:12;;;;;;;205.88;17.90;;;8.30;99.90;;;;;;5024770;28;20100;-76
2022/11/29 01:34:38;;;;;;;214.10;18.20;;;8.60;99.90;;;;;;5006963;28;20045;-78
2022/11/29 01:37:04;;;;;;;177.45;17.88;;;8.90;99.90;;;;;;5039684;28;20073;-77
2022/11/29 01:39:30;;;;;;;211.20;16.67;;;8.80;99.90;;;;;;5023937;28;20056;-75
2022/11/29 01:41:55;;;;;;;138.73;16.15;;;8.80;99.90;;;;;;5024892;28;20105;-76
2022/11/29 01:44:21;;;;;;;116.82;15.82;;;8.20;99.90;;;;;;5023440;28;20076;-76
2022/11/29 01:46:47;;;;;;;144.20;17.63;;;8.50;99.90;;;;;;5024737;28;20080;-77
2022/11/29 01:49:32;;;;;;;147.43;16.80;;;8.70;99.90;;;;;;5022718;28;20136;-75
2022/11/29 01:52:00;;;;;;;;;;;8.70;99.90;;;;;;5038945;28;20176;-75
2022/11/29 01:54:28;;;;;;;156.63;16.67;;;8.60;99.90;;;;;;5038852;28;19913;-78
2022/11/29 01:56:54;;;;;;;174.05;16.85;;;8.20;99.90;;;;;;5023587;28;20025;-76
2022/11/29 01:59:27;;;;;;;145.52;14.38;;;8.80;99.90;;;;;;5037157;28;20075;-75
2022/11/29 02:01:56;;;;;;;143.00;16.83;;;8.90;99.90;;;;;;5039027;28;20404;-77
2022/11/29 02:04:22;;;;;;;154.13;16.42;;;8.20;99.90;;;;;;5025700;28;20053;-75
2022/11/29 02:06:47;;;;;;;170.10;18.23;;;8.30;99.90;;;;;;5003305;28;20475;-77
2022/11/29 02:09:21;;;;;;;130.27;17.45;;;8.70;99.90;;;;;;5022944;28;20033;-76
2022/11/29 02:11:53;;;;;;;194.50;16.85;;;8.40;99.90;;;;;;5038461;28;20223;-75
2022/11/29 02:14:34;;;;;;;214.52;18.02;;;8.20;99.90;;;;;;5038784;28;20041;-77
2022/11/29 02:17:18;;;;;;;250.88;19.38;;;8.60;99.90;;;;;;5040728;28;20045;-76
2022/11/29 02:20:22;;;;;;;88.60;15.77;;;8.30;99.90;;;;;;5019847;28;20072;-77
2022/11/29 02:23:12;;;;;;;121.25;16.08;;;8.30;99.90;;;;;;5038324;28;20100;-77
2022/11/29 02:26:06;;;;;;;124.53;16.65;;;8.50;99.90;;;;;;5022645;28;20267;-77
2022/11/29 02:29:03;;;;;;;152.27;17.17;;;8.90;99.90;;;;;;5021582;28;20028;-78
2022/11/29 02:31:49;;;;;;;117.03;16.58;;;8.80;99.90;;;;;;5023296;28;20096;-79
2022/11/29 02:34:24;;;;;;;104.53;17.83;;;8.50;99.90;;;;;;5040502;28;20275;-78
2022/11/29 02:37:17;;;;;;;167.85;18.33;;;8.80;99.90;;;;;;5039014;28;20044;-77
2022/11/29 02:39:53;;;;;;;111.90;16.90;;;8.80;99.90;;;;;;5023509;28;20243;-76
2022/11/29 02:42:51;;;;;;;104.28;17.17;;;8.20;99.90;;;;;;5037666;28;20068;-76
2022/11/29 02:45:44;;;;;;;103.25;15.48;;;8.80;99.90;;;;;;5006971;28;20224;-77
2022/11/29 02:48:18;;;;;;;104.07;17.77;;;8.80;99.90;;;;;;5039544;28;20033;-76
2022/11/29 02:51:10;;;;;;;135.60;19.50;;;8.30;99.90;;;;;;5039612;28;20086;-79
2022/11/29 02:53:55;;;;;;;82.75;15.93;;;8.40;99.90;;;;;;5036788;28;20259;-79
2022/11/29 02:56:44;;;;;;;87.25;16.63;;;8.40;99.90;;;;;;5027680;28;20220;-80
2022/11/29 02:59:28;;;;;;;121.88;17.95;;;8.90;99.90;;;;;;5016465;28;20271;-80
2022/11/29 03:02:09;;;;;;;121.90;18.00;;;8.80;99.90;;;;;;5056065;28;20034;-77
2022/11/29 03:05:16;;;;;;;153.45;19.92;;;8.80;99.90;;;;;;5021965;28;20395;-76
2022/11/29 03:07:57;;;;;;;143.98;19.50;;;8.80;99.90;;;;;;4991637;28;20271;-78
2022/11/29 03:10:41;;;;;;;94.15;19.50;;;8.30;99.90;;;;;;5014830;28;20033;-76
2022/11/29 03:13:29;;;;;;;95.22;17.95;;;8.80;99.90;;;;;;5040321;28;20099;-79
2022/11/29 03:16:33;;;;;;;163.63;19.95;;;8.40;99.90;;;;;;5023628;28;20033;-77
2022/11/29 03:19:16;;;;;;;137.55;18.73;;;8.70;99.90;;;;;;4984436;28;20074;-76
2022/11/29 03:22:05;;;;;;;93.25;16.38;;;8.70;99.90;;;;;;5022206;28;20042;-78
2022/11/29 03:24:54;;;;;;;210.10;19.70;;;8.20;99.90;;;;;;5021513;28;20076;-75
2022/11/29 03:27:45;;;;;;;157.05;17.80;;;8.20;99.90;;;;;;5033255;28;20057;-76
2022/11/29 03:30:15;;;;;;;125.97;18.02;;;8.30;99.90;;;;;;5032849;28;20031;-79
2022/11/29 03:33:23;;;;;;;149.57;18.98;;;8.20;99.90;;;;;;5040663;28;20147;-76
2022/11/29 03:36:08;;;;;;;140.98;17.85;;;8.30;99.90;;;;;;5038306;28;20104;-77
2022/11/29 03:38:45;;;;;;;105.75;18.80;;;8.10;99.90;;;;;;5039162;28;20045;-77
2022/11/29 03:41:35;;;;;;;96.78;17.38;;;8.60;99.90;;;;;;5027124;28;20037;-78
2022/11/29 03:44:25;;;;;;;81.72;17.55;;;8.40;99.90;;;;;;5046598;28;20049;-77
2022/11/29 03:47:03;;;;;;;101.28;17.65;;;8.20;99.90;;;;;;5018328;28;20034;-76
2022/11/29 03:49:52;;;;;;;107.47;17.08;;;8.50;99.90;;;;;;5038993;28;20028;-75
2022/11/29 03:52:24;;;;;;;155.88;19.10;;;8.70;99.90;;;;;;5014708;28;20026;-78
2022/11/29 03:54:52;;;;;;;116.82;18.55;;;8.60;99.90;;;;;;5043191;28;20109;-78
2022/11/29 03:57:28;;;;;;;101.95;17.98;;;8.70;99.90;;;;;;5037131;28;20224;-78
2022/11/29 04:00:12;;;;;;;105.28;18.42;;;8.60;99.90;;;;;;5017395;28;20231;-76
2022/11/29 04:03:11;;;;;;;132.60;19.00;;;8.40;99.90;;;;;;5038113;28;20037;-79
2022/11/29 04:06:11;;;;;;;86.85;15.07;;;8.60;99.90;;;;;;5048240;28;20308;-77
2022/11/29 04:09:13;;;;;;;91.47;17.17;;;8.60;99.90;;;;;;5023136;28;20193;-75
2022/11/29 04:12:22;;;;;;;72.78;15.95;;;8.50;99.90;;;;;;5024093;28;20037;-75
2022/11/29 04:15:19;;;;;;;101.90;18.38;;;8.50;99.90;;;;;;5017444;28;20046;-77
2022/11/29 04:18:04;;;;;;;88.30;18.02;;;8.60;99.90;;;;;;5038253;28;20110;-76
2022/11/29 04:21:07;;;;;;;52.00;15.57;;;8.50;99.90;;;;;;5030001;28;20029;-77
2022/11/29 04:23:55;;;;;;;115.40;19.10;;;8.10;99.90;;;;;;5041714;28;20216;-76
2022/11/29 04:26:45;;;;;;;56.15;16.05;;;7.90;99.90;;;;;;5061357;28;20223;-77
2022/11/29 04:29:38;;;;;;;115.55;19.17;;;8.20;99.90;;;;;;5042621;28;20187;-78
2022/11/29 04:32:34;;;;;;;68.07;16.02;;;8.30;99.90;;;;;;5041015;28;20025;-76
2022/11/29 04:35:08;;;;;;;106.80;18.33;;;7.90;99.90;;;;;;5039076;28;20033;-75
2022/11/29 04:38:24;;;;;;;79.10;18.33;;;8.10;99.90;;;;;;5041709;28;20025;-76
2022/11/29 04:41:05;;;;;;;62.03;17.70;;;8.10;99.90;;;;;;4969263;28;20053;-78
2022/11/29 04:44:09;;;;;;;100.93;19.70;;;8.50;99.90;;;;;;5040797;28;20041;-76
2022/11/29 04:46:49;;;;;;;110.85;19.05;;;8.10;99.90;;;;;;5041068;28;20065;-75
2022/11/29 04:49:24;;;;;;;130.73;20.77;;;8.50;99.90;;;;;;5025239;28;20029;-74
2022/11/29 04:52:14;;;;;;;143.75;19.92;;;7.80;99.90;;;;;;5056326;28;20029;-77
2022/11/29 04:55:09;;;;;;;112.68;20.15;;;7.80;99.90;;;;;;5038796;28;20044;-75
2022/11/29 04:57:43;;;;;;;107.25;19.80;;;7.90;99.90;;;;;;5041208;28;20033;-75
2022/11/29 05:00:14;;;;;;;133.38;19.73;;;8.40;99.90;;;;;;5026321;28;20069;-76
2022/11/29 05:03:10;;;;;;;147.43;21.13;;;7.80;99.90;;;;;;5041266;28;20025;-80
2022/11/29 05:05:51;;;;;;;130.30;21.38;;;8.10;99.90;;;;;;5041846;28;20072;-79
2022/11/29 05:08:28;;;;;;;121.40;20.38;;;7.90;99.90;;;;;;5028960;28;20034;-74
2022/11/29 05:11:25;;;;;;;113.65;20.83;;;8.00;99.90;;;;;;5041483;28;20358;-75
2022/11/29 05:14:16;;;;;;;120.72;19.17;;;7.80;99.90;;;;;;5040913;28;20152;-77
2022/11/29 05:16:47;;;;;;;149.02;21.17;;;7.80;99.90;;;;;;5041761;28;20232;-77
2022/11/29 05:19:47;;;;;;;98.72;18.45;;;7.80;99.90;;;;;;5041807;28;20041;-75
2022/11/29 05:22:33;;;;;;;121.50;18.92;;;8.30;99.90;;;;;;5041178;28;20322;-76
2022/11/29 05:25:36;;;;;;;112.80;18.45;;;8.20;99.90;;;;;;5034292;28;20052;-76
2022/11/29 05:28:13;;;;;;;85.22;17.45;;;8.40;99.90;;;;;;5039369;28;20242;-75
2022/11/29 05:31:09;;;;;;;83.90;16.77;;;7.80;99.90;;;;;;5040489;28;20318;-74
2022/11/29 05:34:10;;;;;;;55.33;14.82;;;7.80;99.90;;;;;;5023297;28;20231;-75
2022/11/29 05:37:18;;;;;;;81.07;17.60;;;7.80;99.90;;;;;;5017373;28;20339;-76
2022/11/29 05:39:53;;;;;;;71.82;17.38;;;7.90;99.90;;;;;;5038902;28;20044;-76
2022/11/29 05:42:49;;;;;;;85.43;17.75;;;8.10;99.90;;;;;;5039733;28;20641;-76
2022/11/29 05:45:31;;;;;;;79.90;17.63;;;7.90;99.90;;;;;;5024095;28;20030;-74
2022/11/29 05:48:10;;;;;;;79.18;17.95;;;8.20;99.90;;;;;;5040184;28;20104;-76
2022/11/29 05:50:55;;;;;;;70.32;17.20;;;8.10;99.90;;;;;;5043922;28;20304;-76
2022/11/29 05:53:39;;;;;;;84.07;16.90;;;8.30;99.90;;;;;;5040088;28;20189;-76
2022/11/29 05:56:21;;;;;;;59.25;15.57;;;7.80;99.90;;;;;;5024235;28;20308;-75
2022/11/29 05:58:58;;;;;;;77.60;16.45;;;7.70;99.90;;;;;;5027941;28;20092;-76
2022/11/29 06:01:31;;;;;;;81.38;17.05;;;7.90;99.90;;;;;;5039520;28;20072;-75
2022/11/29 06:04:02;;;;;;;76.60;17.00;;;7.50;99.90;;;;;;5038459;28;20041;-75
2022/11/29 06:06:45;;;;;;;77.40;16.90;;;7.70;99.90;;;;;;5023838;28;20041;-75
2022/11/29 06:09:22;;;;;;;53.80;15.10;;;8.00;99.90;;;;;;5060487;28;20332;-76
2022/11/29 06:12:10;;;;;;;56.00;14.82;;;8.00;99.90;;;;;;5038660;28;20358;-75
2022/11/29 06:15:10;;;;;;;72.20;16.80;;;7.50;99.90;;;;;;5018737;28;20091;-78
2022/11/29 06:18:05;;;;;;;76.65;15.95;;;7.50;99.90;;;;;;5040338;28;20076;-76
2022/11/29 06:20:49;;;;;;;63.42;15.73;;;7.90;99.90;;;;;;5035724;28;20059;-76
2022/11/29 06:23:59;;;;;;;91.85;17.35;;;7.90;99.90;;;;;;5040094;28;20112;-78
2022/11/29 06:26:56;;;;;;;81.45;18.42;;;7.90;99.90;;;;;;5026172;28;20041;-78
2022/11/29 06:30:02;;;;;;;95.45;18.25;;;7.50;99.90;;;;;;5028754;28;20166;-76
2022/11/29 06:32:45;;;;;;;97.83;18.23;;;7.40;99.90;;;;;;4980640;28;20030;-76
2022/11/29 06:35:33;;;;;;;87.57;17.67;;;8.00;99.90;;;;;;5033090;28;20362;-77
2022/11/29 06:38:05;;;;;;;67.25;15.93;;;7.40;99.90;;;;;;5058985;28;20130;-77
2022/11/29 06:40:31;;;;;;;73.35;16.73;;;7.70;99.90;;;;;;5039498;28;20029;-78
2022/11/29 06:42:57;;;;;;;74.55;16.15;;;7.80;99.90;;;;;;5037488;28;20041;-77
2022/11/29 06:45:23;;;;;;;63.28;15.77;;;7.50;99.90;;;;;;5010686;28;20260;-76
2022/11/29 06:47:57;;;;;;;67.78;17.10;;;7.70;99.90;;;;;;5035020;28;20035;-76
2022/11/29 06:50:52;;;;;;;63.42;16.52;;;7.40;99.90;;;;;;5041388;28;20095;-77
2022/11/29 06:53:32;;;;;;;67.03;15.93;;;7.90;99.90;;;;;;5040322;28;20072;-77
2022/11/29 06:56:05;;;;;;;64.18;17.25;;;7.60;99.90;;;;;;5023318;28;20086;-79
2022/11/29 06:58:57;;;;;;;68.35;17.63;;;7.40;99.90;;;;;;5042555;28;20174;-79
2022/11/29 07:02:00;;;;;;;55.80;17.25;;;7.70;99.90;;;;;;5039970;28;20383;-77
2022/11/29 07:04:49;;;;;;;43.50;14.63;;;7.50;99.90;;;;;;5039664;28;20044;-75
2022/11/29 07:07:18;;;;;;;60.20;16.08;;;7.70;99.90;;;;;;5022915;28;20118;-77
2022/11/29 07:09:48;;;;;;;59.35;16.52;;;7.60;99.90;;;;;;5039883;28;20227;-77
2022/11/29 07:12:15;;;;;;;58.30;16.00;;;7.50;99.90;;;;;;5039767;28;20045;-77
2022/11/29 07:14:41;;;;;;;58.90;17.75;;;7.30;99.90;;;;;;5037987;28;20041;-76
2022/11/29 07:17:38;;;;;;;59.85;15.52;;;7.80;99.90;;;;;;5002242;28;20295;-76
2022/11/29 07:20:31;;;;;;;55.22;15.88;;;7.40;99.90;;;;;;5015938;28;20232;-77
2022/11/29 07:23:16;;;;;;;65.57;17.70;;;7.30;99.90;;;;;;5038773;28;20103;-76
2022/11/29 07:26:07;;;;;;;54.50;16.83;;;8.00;99.90;;;;;;5044321;28;20280;-76
2022/11/29 07:28:47;;;;;;;52.50;16.50;;;7.90;99.90;;;;;;5026231;28;20057;-79
2022/11/29 07:31:22;;;;;;;48.60;17.45;;;7.90;99.90;;;;;;5039563;28;20079;-79
2022/11/29 07:34:00;;;;;;;68.13;16.73;;;7.90;99.90;;;;;;5039778;28;20131;-76
2022/11/29 07:36:32;;;;;;;50.92;15.52;;;7.60;99.90;;;;;;5031965;28;20036;-78
2022/11/29 07:39:18;;;;;;;61.85;18.60;;;7.80;99.90;;;;;;5016523;28;20107;-77
2022/11/29 07:41:56;;;;;;;46.47;15.35;;;7.80;99.90;;;;;;5037126;28;20049;-76
2022/11/29 07:44:40;;;;;;;47.83;15.73;;;7.80;99.90;;;;;;5028200;28;20047;-75
2022/11/29 07:47:07;;;;;;;39.33;14.48;;;7.90;99.90;;;;;;5040969;28;20040;-77
2022/11/29 07:49:35;;;;;;;53.28;15.90;;;8.20;99.90;;;;;;5026729;28;20070;-74
2022/11/29 07:52:02;;;;;;;44.20;14.98;;;7.90;99.90;;;;;;5041573;28;20067;-75
2022/11/29 07:54:29;;;;;;;43.60;15.57;;;7.40;99.90;;;;;;5042158;28;20043;-74
2022/11/29 07:56:55;;;;;;;43.55;14.55;;;7.90;99.90;;;;;;5006954;28;20041;-73
2022/11/29 07:59:20;;;;;;;34.42;12.85;;;7.40;99.90;;;;;;5025711;28;20040;-74
2022/11/29 08:01:46;;;;;;;39.33;13.32;;;7.70;99.90;;;;;;5041546;28;20099;-74
2022/11/29 08:04:12;;;;;;;46.67;13.57;;;7.50;99.90;;;;;;5022983;28;20112;-74
2022/11/29 08:06:38;;;;;;;41.35;13.95;;;7.80;99.90;;;;;;5018929;28;20297;-74
2022/11/29 08:09:06;;;;;;;43.80;14.88;;;7.30;99.90;;;;;;5036821;28;20033;-72
2022/11/29 08:11:32;;;;;;;48.55;15.70;;;7.40;99.90;;;;;;5030983;28;20202;-73
2022/11/29 08:13:59;;;;;;;42.50;15.35;;;8.10;99.90;;;;;;5020413;28;20042;-73
2022/11/29 08:16:25;;;;;;;48.97;16.33;;;8.20;99.90;;;;;;5040845;28;20080;-74
2022/11/29 08:18:50;;;;;;;37.70;14.48;;;7.60;99.90;;;;;;5039728;28;20041;-77
2022/11/29 08:21:17;;;;;;;47.85;15.20;;;8.10;99.90;;;;;;5036858;28;20079;-77
2022/11/29 08:23:47;;;;;;;41.78;14.98;;;8.10;99.90;;;;;;5023891;28;20045;-73
2022/11/29 08:26:13;;;;;;;37.65;14.48;;;8.30;99.90;;;;;;5040137;28;20067;-73
2022/11/29 08:28:39;;;;;;;40.58;14.05;;;8.20;99.90;;;;;;5038897;28;20033;-75
2022/11/29 08:31:08;;;;;;;35.15;13.27;;;8.10;99.90;;;;;;5022980;28;20057;-74
2022/11/29 08:33:38;;;;;;;36.85;12.00;;;8.30;99.90;;;;;;5035669;28;20033;-73
2022/11/29 08:36:06;;;;;;;35.35;13.13;;;7.80;99.90;;;;;;5037505;28;20035;-75
2022/11/29 08:38:32;;;;;;;32.60;13.38;;;8.30;99.90;;;;;;5021531;28;20029;-74
2022/11/29 08:41:02;;;;;;;27.90;11.70;;;8.30;99.90;;;;;;5039511;28;20048;-74
2022/11/29 08:43:29;;;;;;;37.63;13.27;;;7.70;99.90;;;;;;5007157;28;20556;-75
2022/11/29 08:45:55;;;;;;;35.08;13.15;;;7.80;99.90;;;;;;5002163;28;20042;-73
2022/11/29 08:48:20;;;;;;;27.42;12.32;;;7.90;99.90;;;;;;5035803;28;20018;-73
2022/11/29 08:50:49;;;;;;;34.78;12.85;;;8.30;99.90;;;;;;5003592;28;20443;-76
2022/11/29 08:55:59;;;;;;;29.85;12.20;;;8.40;99.90;;;;;;5038157;28;20038;-73
2022/11/29 08:58:25;;;;;;;35.13;12.32;;;8.40;99.90;;;;;;5027764;28;20099;-78
2022/11/29 09:00:51;;;;;;;30.08;11.57;;;7.90;99.90;;;;;;5020400;28;20033;-73
2022/11/29 09:06:13;;;;;;;27.60;11.82;;;7.90;99.90;;;;;;5023865;28;20045;-76
2022/11/29 09:08:42;;;;;;;29.30;11.00;;;8.20;99.90;;;;;;5023480;28;20038;-74
2022/11/29 09:11:14;;;;;;;27.27;11.85;;;8.70;99.90;;;;;;5022437;28;20052;-75
2022/11/29 09:13:41;;;;;;;28.00;12.30;;;8.80;99.90;;;;;;5021321;28;20085;-78
2022/11/29 09:16:09;;;;;;;32.17;12.38;;;8.80;99.90;;;;;;5021739;28;20042;-72
2022/11/29 09:18:36;;;;;;;29.17;12.40;;;8.30;99.90;;;;;;5042473;28;20037;-76
2022/11/29 09:21:05;;;;;;;34.15;11.90;;;8.20;99.90;;;;;;5038646;28;20029;-77
2022/11/29 09:23:31;;;;;;;43.15;13.80;;;8.60;99.90;;;;;;5020441;28;20116;-76
2022/11/29 09:25:57;;;;;;;25.60;11.52;;;9.00;99.90;;;;;;5020414;28;20373;-75
2022/11/29 09:28:23;;;;;;;35.20;12.45;;;8.20;99.90;;;;;;5050056;28;20036;-72
2022/11/29 09:30:49;;;;;;;26.52;12.13;;;8.40;99.90;;;;;;5043835;28;20038;-74
2022/11/29 09:33:15;;;;;;;32.63;13.38;;;8.30;99.90;;;;;;5039696;28;20071;-74
2022/11/29 09:35:41;;;;;;;29.83;12.10;;;9.10;99.90;;;;;;5039845;28;20037;-72
2022/11/29 09:38:10;;;;;;;22.08;11.27;;;8.80;99.90;;;;;;5039392;28;20032;-72
2022/11/29 09:40:52;;;;;;;24.83;11.77;;;9.10;99.90;;;;;;5023116;28;20033;-74
2022/11/29 09:43:42;;;;;;;31.48;12.07;;;9.10;99.90;;;;;;5038876;28;20030;-74
2022/11/29 09:46:32;;;;;;;30.58;11.43;;;8.70;99.90;;;;;;5039262;28;20037;-74
2022/11/29 09:49:09;;;;;;;25.92;11.48;;;9.30;99.90;;;;;;5039072;28;20034;-74
2022/11/29 09:51:44;;;;;;;29.20;12.05;;;9.20;99.90;;;;;;5023294;28;20037;-74
2022/11/29 09:54:21;;;;;;;20.55;10.43;;;9.20;99.90;;;;;;5039320;28;20048;-74
2022/11/29 09:56:50;;;;;;;26.80;11.18;;;9.10;99.90;;;;;;5003883;28;20041;-75
2022/11/29 09:59:31;;;;;;;28.10;12.15;;;8.90;99.90;;;;;;5035988;28;20038;-76
2022/11/29 10:02:21;;;;;;;30.33;12.00;;;9.50;99.90;;;;;;5022500;28;20037;-74
2022/11/29 10:05:05;;;;;;;29.13;12.13;;;9.10;99.90;;;;;;5019505;28;20049;-75
2022/11/29 10:07:42;;;;;;;27.08;11.02;;;8.90;99.90;;;;;;5020074;28;20116;-74
2022/11/29 10:10:17;;;;;;;27.58;10.93;;;9.40;99.90;;;;;;5018915;28;20034;-77
2022/11/29 10:12:53;;;;;;;28.50;11.18;;;9.20;99.90;;;;;;5038597;28;20310;-78
2022/11/29 10:15:24;;;;;;;30.83;11.38;;;9.20;99.90;;;;;;5003428;28;20044;-78
2022/11/29 10:18:32;;;;;;;27.75;12.23;;;9.60;99.90;;;;;;5003113;28;20037;-77
2022/11/29 10:21:05;;;;;;;31.90;11.38;;;9.30;99.90;;;;;;5021169;28;20500;-74
2022/11/29 10:23:51;;;;;;;23.52;11.85;;;9.40;99.90;;;;;;5039475;28;20033;-73
2022/11/29 10:26:19;;;;;;;25.75;11.68;;;9.40;99.90;;;;;;5039296;28;20033;-76
2022/11/29 10:28:48;;;;;;;30.35;11.43;;;10.10;99.90;;;;;;5032919;28;20104;-75
2022/11/29 10:31:23;;;;;;;27.05;12.20;;;9.70;99.90;;;;;;5038002;28;20060;-74
2022/11/29 10:33:49;;;;;;;24.25;12.05;;;9.60;99.90;;;;;;5032887;28;20029;-74
2022/11/29 10:36:40;;;;;;;29.35;11.32;;;10.10;99.90;;;;;;5022433;28;20094;-74
2022/11/29 10:39:21;;;;;;;26.48;12.68;;;10.20;99.90;;;;;;5021993;28;20100;-75
2022/11/29 10:41:52;;;;;;;24.23;12.20;;;9.90;99.90;;;;;;5038383;28;20040;-74
2022/11/29 10:44:19;;;;;;;23.80;11.70;;;9.70;99.90;;;;;;5021153;28;20181;-75
2022/11/29 10:46:44;;;;;;;24.88;12.70;;;10.20;99.90;;;;;;5021906;28;20104;-77
2022/11/29 10:49:14;;;;;;;26.88;12.18;;;9.70;99.90;;;;;;5021106;28;20033;-74
2022/11/29 10:51:40;;;;;;;26.88;13.65;;;10.30;99.90;;;;;;5022351;28;20038;-76
2022/11/29 10:54:41;;;;;;;24.70;13.52;;;10.30;99.90;;;;;;5034041;28;20076;-75
2022/11/29 10:57:16;;;;;;;25.98;13.80;;;9.70;99.90;;;;;;5014087;28;20042;-76
2022/11/29 10:59:57;;;;;;;22.77;13.20;;;10.00;99.90;;;;;;5037748;28;20033;-75
2022/11/29 11:02:23;;;;;;;25.05;13.02;;;9.50;99.90;;;;;;5038713;28;20048;-77
2022/11/29 11:04:49;;;;;;;21.08;12.50;;;9.90;99.90;;;;;;5020953;28;20112;-75
2022/11/29 11:07:41;;;;;;;23.23;12.75;;;10.00;99.90;;;;;;5005529;28;20034;-74
2022/11/29 11:10:28;;;;;;;23.70;12.18;;;9.80;99.90;;;;;;5003530;28;20165;-76
2022/11/29 11:13:20;;;;;;;22.25;12.15;;;10.20;99.90;;;;;;5021303;28;20326;-75
2022/11/29 11:15:45;;;;;;;26.25;12.77;;;10.20;99.90;;;;;;5036096;28;20323;-75
2022/11/29 11:18:20;;;;;;;21.45;11.55;;;9.50;99.90;;;;;;5020281;28;20037;-74
2022/11/29 11:20:53;;;;;;;22.38;11.88;;;9.60;99.90;;;;;;5038661;28;20092;-74
2022/11/29 11:23:30;;;;;;;17.55;11.65;;;9.90;99.90;;;;;;5039492;28;20048;-76
2022/11/29 11:26:09;;;;;;;21.80;12.48;;;10.00;99.90;;;;;;5031151;28;20109;-75
2022/11/29 11:28:42;;;;;;;22.05;12.40;;;9.50;99.90;;;;;;5049557;28;20043;-72
2022/11/29 11:31:10;;;;;;;19.98;11.98;;;9.80;99.90;;;;;;5022717;28;20147;-74
2022/11/29 11:33:40;;;;;;;19.15;11.70;;;9.50;99.90;;;;;;5025158;28;20038;-73
2022/11/29 11:36:13;;;;;;;22.80;12.80;;;10.30;99.90;;;;;;5040627;28;20029;-73
2022/11/29 11:39:09;;;;;;;17.98;11.90;;;10.10;99.90;;;;;;5025594;28;20048;-73
2022/11/29 11:44:33;;;;;;;21.70;12.60;;;10.00;99.90;;;;;;5022362;28;20041;-76
2022/11/29 11:47:00;;;;;;;23.55;12.75;;;10.10;99.90;;;;;;5004856;28;20052;-73
2022/11/29 11:49:46;;;;;;;21.83;13.18;;;9.50;99.90;;;;;;5026680;28;20057;-77
2022/11/29 11:52:20;;;;;;;20.13;12.63;;;9.60;99.90;;;;;;5039755;28;20042;-76
2022/11/29 11:54:52;;;;;;;21.38;12.73;;;9.50;99.90;;;;;;5054518;28;20043;-74
2022/11/29 11:57:20;;;;;;;16.83;11.43;;;9.70;99.90;;;;;;5041995;28;20076;-74
2022/11/29 11:59:48;;;;;;;20.52;12.23;;;9.60;99.90;;;;;;5051334;28;20044;-73
2022/11/29 12:02:25;;;;;;;18.77;12.40;;;9.90;99.90;;;;;;5059667;28;20115;-75
2022/11/29 12:04:53;;;;;;;19.35;11.88;;;10.00;99.90;;;;;;5022964;28;20054;-73
2022/11/29 12:07:29;;;;;;;20.95;12.30;;;9.90;99.90;;;;;;5039976;28;20088;-73
2022/11/29 12:10:02;;;;;;;17.80;12.05;;;10.10;99.90;;;;;;5023713;28;20039;-74
2022/11/29 12:12:36;;;;;;;17.15;11.93;;;9.50;99.90;;;;;;5040409;28;20399;-76
2022/11/29 12:15:04;;;;;;;20.48;13.18;;;10.10;99.90;;;;;;5022230;28;20041;-74
2022/11/29 12:17:45;;;;;;;19.52;12.65;;;10.00;99.90;;;;;;5039986;28;20037;-73
2022/11/29 12:20:33;;;;;;;24.05;13.20;;;9.50;99.90;;;;;;5044559;28;20029;-73
2022/11/29 12:23:11;;;;;;;21.52;12.43;;;9.90;99.90;;;;;;5059265;28;20053;-77
2022/11/29 12:26:01;;;;;;;18.70;11.95;;;9.70;99.90;;;;;;5023484;28;20049;-74
2022/11/29 12:28:32;;;;;;;16.77;10.73;;;9.90;99.90;;;;;;5040000;28;20045;-75
2022/11/29 12:31:01;;;;;;;17.42;11.80;;;9.30;99.90;;;;;;5039521;28;20217;-74
2022/11/29 12:33:49;;;;;;;18.35;12.27;;;9.60;99.90;;;;;;5039172;28;20040;-72
2022/11/29 12:36:33;;;;;;;20.60;11.63;;;9.20;99.90;;;;;;5002894;28;20213;-74
2022/11/29 12:39:22;;;;;;;17.23;11.65;;;9.10;99.90;;;;;;5019491;28;20042;-75
2022/11/29 12:42:22;;;;;;;16.73;11.00;;;9.60;99.90;;;;;;5033128;28;20041;-76
2022/11/29 12:45:21;;;;;;;18.67;11.27;;;9.20;99.90;;;;;;5038880;28;20033;-74
2022/11/29 12:48:15;;;;;;;17.52;11.18;;;9.60;99.90;;;;;;5022354;28;20030;-76
2022/11/29 12:50:49;;;;;;;15.98;10.73;;;9.10;99.90;;;;;;5024406;28;20235;-76
2022/11/29 12:54:06;;;;;;;15.90;10.35;;;9.50;99.90;;;;;;5038814;28;20040;-74
2022/11/29 12:56:54;;;;;;;13.68;9.63;;;9.20;99.90;;;;;;4999715;28;20117;-74
2022/11/29 12:59:50;;;;;;;13.13;9.93;;;9.70;99.90;;;;;;5021740;28;20577;-72
2022/11/29 13:02:22;;;;;;;;;;;9.50;99.90;;;;;;5049581;28;20219;-74
2022/11/29 13:04:58;;;;;;;15.30;10.27;;;8.90;99.90;;;;;;5042380;28;20391;-77
2022/11/29 13:07:30;;;;;;;14.15;10.63;;;8.90;99.90;;;;;;5038715;28;20656;-75
2022/11/29 13:10:34;;;;;;;14.80;10.10;;;9.30;99.90;;;;;;5039459;28;20029;-75
2022/11/29 13:13:33;;;;;;;13.15;10.13;;;8.90;99.90;;;;;;5001068;28;20158;-75
2022/11/29 13:16:07;;;;;;;15.43;10.50;;;9.00;99.90;;;;;;5017558;28;20045;-74
2022/11/29 13:18:50;;;;;;;16.23;10.68;;;8.70;99.90;;;;;;5028077;28;20041;-74
2022/11/29 13:21:21;;;;;;;15.75;11.07;;;9.10;99.90;;;;;;5038222;28;20041;-73
2022/11/29 13:24:03;;;;;;;32.70;11.80;;;9.10;99.90;;;;;;5055760;28;20037;-73
2022/11/29 13:26:31;;;;;;;15.52;11.25;;;8.90;99.90;;;;;;5059140;28;20075;-73
2022/11/29 13:28:57;;;;;;;14.32;11.30;;;9.30;99.90;;;;;;5032276;28;20029;-73
2022/11/29 13:31:24;;;;;;;18.58;12.00;;;8.80;99.90;;;;;;5021709;28;20041;-72
2022/11/29 13:34:09;;;;;;;16.77;11.52;;;9.20;99.90;;;;;;5023593;28;20101;-75
2022/11/29 13:37:06;;;;;;;16.63;11.70;;;8.90;99.90;;;;;;5040388;28;20072;-76
2022/11/29 13:39:34;;;;;;;15.30;10.35;;;8.60;99.90;;;;;;5029933;28;20042;-73